Forside
METAR-TAF:

METAR-TAF

Lufthavne :

Broome, Australien

Breddekreds: 17-57S, længdekreds: 122-13E, højde: 17 m

Aktuelle vejr

Denne rapport blev lavet for 20 minutter siden, kl. 01:00 UTC
Vind 8 kt fra vest
Temperatur 31°C
Fugtighed 71%
Tryk 1012 hPa
Sigt 10 km eller mere
Spredte skyer i en højde af 2000 ft

METAR: YBRM 210100Z 28008KT 9999 SCT020 31/25 Q1012

Tid: 09:20 (01:20 UTC)

Vejrudsigter

Denne rapport blev lavet for 2 timer og 18 minutter siden, kl. 23:02 UTC
Foreløbig gælder fra 21 på 00 UTC til 21 på 24 UTC
Vind 10 kt fra vest
Sigt 10 km eller mere
Spredte skyer i en højde af 2200 ft

TAF: YBRM 202302Z 2100/2124 26010KT 9999 SCT022

Vejrobservationer og prognoser fra mere end 4000 lufthavne (METAR og TAF).

De gule og røde prikker repræsenterer de meteorologiske stationer.

Flyt musen over at se navnet på stationen.

Så klik over at se vejr observationer og prognoser.

At skifte det kort: Klik på de grønne knapper med et sort kors for at zoome ind; på den grønne knap med en bindestreg for at zoome ud; eller på de grønne pile for tilstødende kort.


METAR-TAF: